KBAX

Huron County Memorial Airport

Bad Axe, Michigan, USA
METAR KBAX 220636Z AUTO 00000KT 10SM CLR 01/M03 A3040 RMK AO2 T00101033
Observed Flight Rules
Apr-22 @ 06:36 UTC (21 minutes ago) Visual Flight Rules
Visibility Clouds
10 miles
  • Clear skies
Temperatures Readings
Current 1°C / 34°F
Dewpoint -3°C / 27°F
Humidity 75%
Altimeter 30.4" Hg
Pressure 1029 hPa
Elevation 234
METAR KBAX 220636Z AUTO 00000KT 10SM CLR 01/M03 A3040 RMK AO2 T00101033
Observed Flight Rules
Apr-22 @ 06:36 UTC
(21 minutes ago)
VFR
Clouds
  • Clear skies
Temperature Dewpoint
1°C / 34°F -3°C / 27°F
Humidity Altimeter Pressure
75% 30.4" Hg 1029 hPa